Flight Track Log - Related Links

Times and Time Zones

All times are in EDT time to prevent confusion due to time zone crossing. See the EJA122 flight status page for this flight to view local times or setup timezone preferences in your user account.

Time Position Orientation Groundspeed Altitude Reporting Facility
EDT Latitude Longitude Course Direction KTS MPH feet Rate Location/Type
Sun 04:20:24 PM 43.4789 -80.3372 208° Southwest 370 426 2,800  Level Cleveland Center
Sun 04:21:24 PM 43.4747 -80.2658 95° East 212 244 5,500 2,224 Climbing Cleveland Center
Sun 04:22:20 PM 43.4167 -80.2833 192° South 200 230 7,100 1,759 Climbing Toronto Center
Sun 04:23:20 PM 43.3833 -80.3500 235° Southwest 230 265 8,900 1,800 Climbing Toronto Center
Sun 04:24:00 PM 42.9383 -80.7203 208° Southwest  Level FlightAware Approximate
Sun 04:24:20 PM 43.3000 -80.3833 196° South 280 322 10,700  Level Toronto Center
Sun 04:25:00 PM 42.8656 -80.7722 208° Southwest  Level FlightAware Approximate
Sun 04:25:20 PM 43.2333 -80.4500 216° Southwest 310 357 12,500  Level Toronto Center
Sun 04:26:20 PM 43.1500 -80.5167 210° Southwest 320 368 14,400 1,700 Climbing Toronto Center
Sun 04:27:20 PM 43.0833 -80.5667 209° Southwest 320 368 15,900 800 Climbing Toronto Center
Sun 04:28:20 PM 43.0000 -80.6333 210° Southwest 340 391 16,000 50 Climbing Toronto Center
Sun 04:29:20 PM 42.9167 -80.7000 210° Southwest 380 437 16,000  Level Toronto Center
Sun 04:30:20 PM 42.8167 -80.8000 216° Southwest 400 460 16,000  Level Toronto Center
Sun 04:31:20 PM 42.7000 -80.8500 197° South 400 460 16,000  Level Toronto Center
Sun 04:32:20 PM 42.6667 -81.0167 255° West 390 449 16,000  Level Toronto Center
Sun 04:33:24 PM 42.6733 -81.1792 273° West 389 448 16,000  Level Cleveland Center
Sun 04:34:24 PM 42.6558 -81.3314 261° West 401 461 16,000  Level Cleveland Center
Sun 04:35:24 PM 42.6381 -81.4836 261° West 410 472 16,000  Level Cleveland Center
Sun 04:36:24 PM 42.6222 -81.6131 261° West 403 464 16,000  Level Cleveland Center
Sun 04:37:24 PM 42.6022 -81.7650 260° West 408 470 16,000  Level Cleveland Center
Sun 04:38:24 PM 42.5836 -81.9283 261° West 408 470 16,000  Level Cleveland Center
Sun 04:39:24 PM 42.5672 -82.0744 261° West 408 470 16,000 -425 Level Cleveland Center
Sun 04:40:17 PM 42.5508 -82.2122 261° West 399 459 15,200 -1,368 Descending Cleveland Center
Sun 04:41:18 PM 42.5342 -82.3583 261° West 387 445 13,400 -1,759 Descending Cleveland Center
Sun 04:42:13 PM 42.5175 -82.4847 260° West 374 430 11,800 -1,241 Descending Cleveland Center
Sun 04:43:14 PM 42.4861 -82.6133 252° West 356 410 11,000 -517 Descending Cleveland Center
Sun 04:44:09 PM 42.4464 -82.7244 244° Southwest 355 409 10,800 -724 Descending Cleveland Center
Sun 04:45:10 PM 42.4319 -82.8281 259° West 278 320 9,600 -1,406 Descending Cleveland Center
Sun 04:46:17 PM 42.4525 -82.9442 284° West 282 325 7,800 -1,289 Descending Cleveland Center
Sun 04:47:11 PM 42.4825 -83.0158 300° West 225 259 7,000 -756 Descending Cleveland Center
Sun 04:48:24 PM 42.5183 -83.0875 304° West 222 255 6,200 -469 Descending Cleveland Center
Sun 04:49:19 PM 42.4922 -83.1344 233° Southwest 187 215 6,000 -155 Descending Cleveland Center
Sun 04:50:20 PM 42.4500 -83.1664 209° Southwest 178 205 5,900 -639 Descending Cleveland Center
Sun 04:51:21 PM 42.4056 -83.1983 208° Southwest 175 201 4,700 -1,031 Descending Cleveland Center
Sun 04:52:28 PM 42.3567 -83.2328 208° Southwest 192 221 3,700 -885 Descending Cleveland Center
Sun 04:53:23 PM 42.3122 -83.2647 208° Southwest 196 226 2,900 -934 Descending Cleveland Center
Sun 04:54:30 PM 42.2675 -83.3022 212° Southwest 146 168 1,800 -891 Descending Cleveland Center
Sun 04:55:31 PM 42.2336 -83.3258 207° Southwest 136 157 1,000 -787 Descending Cleveland Center

Login

Don't have an account? Register now (free) for customized features, flight alerts, and more!